<?xml version="1.0" encoding="UTF-8" standalone="no" ?>
<gpx xmlns="http://www.topografix.com/GPX/1/1" xmlns:xsi="http://www.w3.org/2001/XMLSchema-instance" xsi:schemaLocation="http://www.topografix.com/GPX/1/1 http://www.topografix.com/GPX/1/1/gpx.xsd" version="1.1" creator="VisuGPX - https://www.visugpx.com">
  <metadata>
    <name>Ligne 2 Onex Cité - Genève Plage</name>
  </metadata>
  <trk>
    <name><![CDATA[Ligne 2 Onex Cité - Genève Plage_1]]></name>
    <trkseg>
      <trkpt lat="46.18849" lon="6.09985">
        <ele>422.2</ele>
        <time>2020-04-23T20:22:26.000Z</time>
      </trkpt>
      <trkpt lat="46.18784" lon="6.10029">
        <ele>421.8</ele>
        <time>2020-04-23T20:22:40.368Z</time>
      </trkpt>
      <trkpt lat="46.18784" lon="6.10051">
        <ele>421.8</ele>
        <time>2020-04-23T20:22:43.416Z</time>
      </trkpt>
      <trkpt lat="46.18798" lon="6.10075">
        <ele>421.6</ele>
        <time>2020-04-23T20:22:47.765Z</time>
      </trkpt>
      <trkpt lat="46.18881" lon="6.10167">
        <ele>422.1</ele>
        <time>2020-04-23T20:23:08.705Z</time>
      </trkpt>
      <trkpt lat="46.18896" lon="6.10169">
        <ele>420.9</ele>
        <time>2020-04-23T20:23:11.720Z</time>
      </trkpt>
      <trkpt lat="46.18908" lon="6.10165">
        <ele>419</ele>
        <time>2020-04-23T20:23:14.185Z</time>
      </trkpt>
      <trkpt lat="46.18932" lon="6.10148">
        <ele>418.5</ele>
        <time>2020-04-23T20:23:19.535Z</time>
      </trkpt>
      <trkpt lat="46.18942" lon="6.10136">
        <ele>418.7</ele>
        <time>2020-04-23T20:23:22.137Z</time>
      </trkpt>
      <trkpt lat="46.19079" lon="6.10043">
        <ele>415.8</ele>
        <time>2020-04-23T20:23:52.435Z</time>
      </trkpt>
      <trkpt lat="46.19094" lon="6.10042">
        <ele>415</ele>
        <time>2020-04-23T20:23:55.440Z</time>
      </trkpt>
      <trkpt lat="46.19112" lon="6.10055">
        <ele>415.1</ele>
        <time>2020-04-23T20:23:59.468Z</time>
      </trkpt>
      <trkpt lat="46.19162" lon="6.10214">
        <ele>418.4</ele>
        <time>2020-04-23T20:24:23.665Z</time>
      </trkpt>
      <trkpt lat="46.19162" lon="6.10223">
        <ele>418.3</ele>
        <time>2020-04-23T20:24:24.912Z</time>
      </trkpt>
      <trkpt lat="46.19164" lon="6.10231">
        <ele>417.9</ele>
        <time>2020-04-23T20:24:26.091Z</time>
      </trkpt>
      <trkpt lat="46.1917" lon="6.10238">
        <ele>415.5</ele>
        <time>2020-04-23T20:24:27.635Z</time>
      </trkpt>
      <trkpt lat="46.19225" lon="6.10404">
        <ele>419.2</ele>
        <time>2020-04-23T20:24:53.134Z</time>
      </trkpt>
      <trkpt lat="46.19227" lon="6.10417">
        <ele>419</ele>
        <time>2020-04-23T20:24:54.979Z</time>
      </trkpt>
      <trkpt lat="46.19229" lon="6.10426">
        <ele>419</ele>
        <time>2020-04-23T20:24:56.289Z</time>
      </trkpt>
      <trkpt lat="46.19237" lon="6.10434">
        <ele>418.9</ele>
        <time>2020-04-23T20:24:58.236Z</time>
      </trkpt>
      <trkpt lat="46.19289" lon="6.10583">
        <ele>416.3</ele>
        <time>2020-04-23T20:25:21.355Z</time>
      </trkpt>
      <trkpt lat="46.19332" lon="6.10696">
        <ele>419.2</ele>
        <time>2020-04-23T20:25:39.221Z</time>
      </trkpt>
      <trkpt lat="46.19339" lon="6.10707">
        <ele>419</ele>
        <time>2020-04-23T20:25:41.291Z</time>
      </trkpt>
      <trkpt lat="46.19383" lon="6.10822">
        <ele>422.2</ele>
        <time>2020-04-23T20:25:59.496Z</time>
      </trkpt>
      <trkpt lat="46.19383" lon="6.10836">
        <ele>422.1</ele>
        <time>2020-04-23T20:26:01.436Z</time>
      </trkpt>
      <trkpt lat="46.1939" lon="6.10858">
        <ele>421.8</ele>
        <time>2020-04-23T20:26:04.791Z</time>
      </trkpt>
      <trkpt lat="46.19393" lon="6.10875">
        <ele>421.4</ele>
        <time>2020-04-23T20:26:07.222Z</time>
      </trkpt>
      <trkpt lat="46.19392" lon="6.10889">
        <ele>421.1</ele>
        <time>2020-04-23T20:26:09.172Z</time>
      </trkpt>
      <trkpt lat="46.19396" lon="6.109">
        <ele>420.7</ele>
        <time>2020-04-23T20:26:10.894Z</time>
      </trkpt>
      <trkpt lat="46.1941" lon="6.1091">
        <ele>419.8</ele>
        <time>2020-04-23T20:26:14.020Z</time>
      </trkpt>
      <trkpt lat="46.19423" lon="6.10936">
        <ele>416.5</ele>
        <time>2020-04-23T20:26:18.464Z</time>
      </trkpt>
      <trkpt lat="46.1944" lon="6.10984">
        <ele>414.7</ele>
        <time>2020-04-23T20:26:25.934Z</time>
      </trkpt>
      <trkpt lat="46.19454" lon="6.11048">
        <ele>413.5</ele>
        <time>2020-04-23T20:26:35.233Z</time>
      </trkpt>
      <trkpt lat="46.19464" lon="6.11179">
        <ele>415.8</ele>
        <time>2020-04-23T20:26:53.493Z</time>
      </trkpt>
      <trkpt lat="46.19471" lon="6.11305">
        <ele>417.9</ele>
        <time>2020-04-23T20:27:11.006Z</time>
      </trkpt>
      <trkpt lat="46.19474" lon="6.1135">
        <ele>419</ele>
        <time>2020-04-23T20:27:17.269Z</time>
      </trkpt>
      <trkpt lat="46.19484" lon="6.11369">
        <ele>419.3</ele>
        <time>2020-04-23T20:27:20.576Z</time>
      </trkpt>
      <trkpt lat="46.19496" lon="6.11379">
        <ele>419.4</ele>
        <time>2020-04-23T20:27:23.349Z</time>
      </trkpt>
      <trkpt lat="46.19515" lon="6.11375">
        <ele>418.8</ele>
        <time>2020-04-23T20:27:27.192Z</time>
      </trkpt>
      <trkpt lat="46.19553" lon="6.11362">
        <ele>418.3</ele>
        <time>2020-04-23T20:27:35.008Z</time>
      </trkpt>
      <trkpt lat="46.1962" lon="6.11338">
        <ele>417.3</ele>
        <time>2020-04-23T20:27:48.824Z</time>
      </trkpt>
      <trkpt lat="46.19656" lon="6.11329">
        <ele>416.2</ele>
        <time>2020-04-23T20:27:56.137Z</time>
      </trkpt>
      <trkpt lat="46.19675" lon="6.11331">
        <ele>416</ele>
        <time>2020-04-23T20:27:59.950Z</time>
      </trkpt>
      <trkpt lat="46.19683" lon="6.11346">
        <ele>416.2</ele>
        <time>2020-04-23T20:28:02.573Z</time>
      </trkpt>
      <trkpt lat="46.19707" lon="6.11583">
        <ele>420.9</ele>
        <time>2020-04-23T20:28:35.757Z</time>
      </trkpt>
      <trkpt lat="46.19705" lon="6.11594">
        <ele>421.4</ele>
        <time>2020-04-23T20:28:37.333Z</time>
      </trkpt>
      <trkpt lat="46.19701" lon="6.116">
        <ele>421.5</ele>
        <time>2020-04-23T20:28:38.487Z</time>
      </trkpt>
      <trkpt lat="46.19698" lon="6.11604">
        <ele>421.6</ele>
        <time>2020-04-23T20:28:39.304Z</time>
      </trkpt>
      <trkpt lat="46.1969" lon="6.1161">
        <ele>421.7</ele>
        <time>2020-04-23T20:28:41.108Z</time>
      </trkpt>
      <trkpt lat="46.19681" lon="6.11618">
        <ele>421.6</ele>
        <time>2020-04-23T20:28:43.223Z</time>
      </trkpt>
      <trkpt lat="46.19673" lon="6.11628">
        <ele>421.4</ele>
        <time>2020-04-23T20:28:45.340Z</time>
      </trkpt>
      <trkpt lat="46.19665" lon="6.1164">
        <ele>422.5</ele>
        <time>2020-04-23T20:28:47.648Z</time>
      </trkpt>
      <trkpt lat="46.19659" lon="6.11652">
        <ele>421.9</ele>
        <time>2020-04-23T20:28:49.699Z</time>
      </trkpt>
      <trkpt lat="46.19653" lon="6.11676">
        <ele>421.6</ele>
        <time>2020-04-23T20:28:53.234Z</time>
      </trkpt>
      <trkpt lat="46.19651" lon="6.11708">
        <ele>422.6</ele>
        <time>2020-04-23T20:28:57.685Z</time>
      </trkpt>
      <trkpt lat="46.19649" lon="6.11753">
        <ele>422.2</ele>
        <time>2020-04-23T20:29:03.932Z</time>
      </trkpt>
      <trkpt lat="46.19632" lon="6.12054">
        <ele>421.1</ele>
        <time>2020-04-23T20:29:45.772Z</time>
      </trkpt>
      <trkpt lat="46.19628" lon="6.12077">
        <ele>421</ele>
        <time>2020-04-23T20:29:49.058Z</time>
      </trkpt>
      <trkpt lat="46.19625" lon="6.12093">
        <ele>418.5</ele>
        <time>2020-04-23T20:29:51.355Z</time>
      </trkpt>
      <trkpt lat="46.1962" lon="6.12109">
        <ele>418.1</ele>
        <time>2020-04-23T20:29:53.787Z</time>
      </trkpt>
      <trkpt lat="46.19608" lon="6.12132">
        <ele>417.4</ele>
        <time>2020-04-23T20:29:57.777Z</time>
      </trkpt>
      <trkpt lat="46.19597" lon="6.12152">
        <ele>416.8</ele>
        <time>2020-04-23T20:30:01.316Z</time>
      </trkpt>
      <trkpt lat="46.19499" lon="6.12284">
        <ele>413.2</ele>
        <time>2020-04-23T20:30:28.134Z</time>
      </trkpt>
      <trkpt lat="46.19453" lon="6.12353">
        <ele>410.2</ele>
        <time>2020-04-23T20:30:41.406Z</time>
      </trkpt>
      <trkpt lat="46.19427" lon="6.12385">
        <ele>409.6</ele>
        <time>2020-04-23T20:30:48.242Z</time>
      </trkpt>
      <trkpt lat="46.19416" lon="6.12411">
        <ele>409.6</ele>
        <time>2020-04-23T20:30:52.464Z</time>
      </trkpt>
      <trkpt lat="46.19409" lon="6.12433">
        <ele>409.9</ele>
        <time>2020-04-23T20:30:55.819Z</time>
      </trkpt>
      <trkpt lat="46.19409" lon="6.12443">
        <ele>410.1</ele>
        <time>2020-04-23T20:30:57.204Z</time>
      </trkpt>
      <trkpt lat="46.19414" lon="6.12474">
        <ele>410</ele>
        <time>2020-04-23T20:31:01.614Z</time>
      </trkpt>
      <trkpt lat="46.19441" lon="6.12549">
        <ele>406.5</ele>
        <time>2020-04-23T20:31:13.326Z</time>
      </trkpt>
      <trkpt lat="46.19464" lon="6.12607">
        <ele>401.5</ele>
        <time>2020-04-23T20:31:22.587Z</time>
      </trkpt>
      <trkpt lat="46.1948" lon="6.12636">
        <ele>399.4</ele>
        <time>2020-04-23T20:31:27.725Z</time>
      </trkpt>
      <trkpt lat="46.19498" lon="6.12655">
        <ele>396</ele>
        <time>2020-04-23T20:31:32.187Z</time>
      </trkpt>
      <trkpt lat="46.19517" lon="6.12669">
        <ele>390.7</ele>
        <time>2020-04-23T20:31:36.456Z</time>
      </trkpt>
      <trkpt lat="46.19557" lon="6.12685">
        <ele>390.4</ele>
        <time>2020-04-23T20:31:44.763Z</time>
      </trkpt>
      <trkpt lat="46.19887" lon="6.12784">
        <ele>382.1</ele>
        <time>2020-04-23T20:32:52.222Z</time>
      </trkpt>
      <trkpt lat="46.19924" lon="6.1281">
        <ele>377.1</ele>
        <time>2020-04-23T20:33:00.457Z</time>
      </trkpt>
      <trkpt lat="46.19989" lon="6.12874">
        <ele>375.3</ele>
        <time>2020-04-23T20:33:16.201Z</time>
      </trkpt>
      <trkpt lat="46.19997" lon="6.12909">
        <ele>375.7</ele>
        <time>2020-04-23T20:33:21.307Z</time>
      </trkpt>
      <trkpt lat="46.2004" lon="6.12953">
        <ele>378.4</ele>
        <time>2020-04-23T20:33:31.853Z</time>
      </trkpt>
      <trkpt lat="46.20042" lon="6.12957">
        <ele>378.5</ele>
        <time>2020-04-23T20:33:32.537Z</time>
      </trkpt>
      <trkpt lat="46.20043" lon="6.12964">
        <ele>378.6</ele>
        <time>2020-04-23T20:33:33.527Z</time>
      </trkpt>
      <trkpt lat="46.20043" lon="6.12974">
        <ele>378.7</ele>
        <time>2020-04-23T20:33:34.912Z</time>
      </trkpt>
      <trkpt lat="46.19997" lon="6.13232">
        <ele>377.3</ele>
        <time>2020-04-23T20:34:11.820Z</time>
      </trkpt>
      <trkpt lat="46.19989" lon="6.13249">
        <ele>377.5</ele>
        <time>2020-04-23T20:34:14.668Z</time>
      </trkpt>
      <trkpt lat="46.19966" lon="6.13291">
        <ele>376.8</ele>
        <time>2020-04-23T20:34:22.087Z</time>
      </trkpt>
      <trkpt lat="46.19948" lon="6.13318">
        <ele>376.8</ele>
        <time>2020-04-23T20:34:27.280Z</time>
      </trkpt>
      <trkpt lat="46.19783" lon="6.13613">
        <ele>381.7</ele>
        <time>2020-04-23T20:35:19.824Z</time>
      </trkpt>
      <trkpt lat="46.19778" lon="6.13626">
        <ele>381.6</ele>
        <time>2020-04-23T20:35:21.884Z</time>
      </trkpt>
      <trkpt lat="46.19779" lon="6.13633">
        <ele>381.5</ele>
        <time>2020-04-23T20:35:22.874Z</time>
      </trkpt>
      <trkpt lat="46.19783" lon="6.13638">
        <ele>381.5</ele>
        <time>2020-04-23T20:35:23.933Z</time>
      </trkpt>
      <trkpt lat="46.1983" lon="6.13686">
        <ele>381.2</ele>
        <time>2020-04-23T20:35:35.453Z</time>
      </trkpt>
      <trkpt lat="46.1987" lon="6.13713">
        <ele>381.6</ele>
        <time>2020-04-23T20:35:44.290Z</time>
      </trkpt>
      <trkpt lat="46.19954" lon="6.13752">
        <ele>382.2</ele>
        <time>2020-04-23T20:36:01.949Z</time>
      </trkpt>
      <trkpt lat="46.20062" lon="6.13768">
        <ele>380.3</ele>
        <time>2020-04-23T20:36:23.679Z</time>
      </trkpt>
      <trkpt lat="46.20133" lon="6.1378">
        <ele>380.7</ele>
        <time>2020-04-23T20:36:37.987Z</time>
      </trkpt>
      <trkpt lat="46.20135" lon="6.13782">
        <ele>380.7</ele>
        <time>2020-04-23T20:36:38.474Z</time>
      </trkpt>
      <trkpt lat="46.20136" lon="6.13789">
        <ele>380.6</ele>
        <time>2020-04-23T20:36:39.464Z</time>
      </trkpt>
      <trkpt lat="46.20138" lon="6.13797">
        <ele>380.5</ele>
        <time>2020-04-23T20:36:40.642Z</time>
      </trkpt>
      <trkpt lat="46.20141" lon="6.13908">
        <ele>381.7</ele>
        <time>2020-04-23T20:36:56.030Z</time>
      </trkpt>
      <trkpt lat="46.20138" lon="6.13952">
        <ele>382.6</ele>
        <time>2020-04-23T20:37:02.155Z</time>
      </trkpt>
      <trkpt lat="46.2013" lon="6.14013">
        <ele>383</ele>
        <time>2020-04-23T20:37:10.756Z</time>
      </trkpt>
      <trkpt lat="46.2017" lon="6.14139">
        <ele>385.5</ele>
        <time>2020-04-23T20:37:29.959Z</time>
      </trkpt>
      <trkpt lat="46.20179" lon="6.14152">
        <ele>385.7</ele>
        <time>2020-04-23T20:37:32.506Z</time>
      </trkpt>
      <trkpt lat="46.2019" lon="6.14191">
        <ele>386.2</ele>
        <time>2020-04-23T20:37:38.340Z</time>
      </trkpt>
      <trkpt lat="46.20197" lon="6.14198">
        <ele>386.2</ele>
        <time>2020-04-23T20:37:40.044Z</time>
      </trkpt>
      <trkpt lat="46.20203" lon="6.14205">
        <ele>386.2</ele>
        <time>2020-04-23T20:37:41.588Z</time>
      </trkpt>
      <trkpt lat="46.20208" lon="6.14202">
        <ele>386.3</ele>
        <time>2020-04-23T20:37:42.672Z</time>
      </trkpt>
      <trkpt lat="46.203" lon="6.14135">
        <ele>385.2</ele>
        <time>2020-04-23T20:38:03.293Z</time>
      </trkpt>
      <trkpt lat="46.20359" lon="6.14126">
        <ele>381.3</ele>
        <time>2020-04-23T20:38:15.168Z</time>
      </trkpt>
      <trkpt lat="46.20364" lon="6.14137">
        <ele>381.2</ele>
        <time>2020-04-23T20:38:16.991Z</time>
      </trkpt>
      <trkpt lat="46.2037" lon="6.1424">
        <ele>381.9</ele>
        <time>2020-04-23T20:38:31.309Z</time>
      </trkpt>
      <trkpt lat="46.20379" lon="6.14313">
        <ele>384.8</ele>
        <time>2020-04-23T20:38:41.580Z</time>
      </trkpt>
      <trkpt lat="46.2039" lon="6.14377">
        <ele>389</ele>
        <time>2020-04-23T20:38:50.715Z</time>
      </trkpt>
      <trkpt lat="46.20353" lon="6.14528">
        <ele>392.2</ele>
        <time>2020-04-23T20:39:12.904Z</time>
      </trkpt>
      <trkpt lat="46.20339" lon="6.14604">
        <ele>390.3</ele>
        <time>2020-04-23T20:39:23.798Z</time>
      </trkpt>
      <trkpt lat="46.20294" lon="6.14786">
        <ele>389.8</ele>
        <time>2020-04-23T20:39:50.570Z</time>
      </trkpt>
      <trkpt lat="46.20235" lon="6.15056">
        <ele>388</ele>
        <time>2020-04-23T20:40:29.792Z</time>
      </trkpt>
      <trkpt lat="46.20192" lon="6.152">
        <ele>386.5</ele>
        <time>2020-04-23T20:40:51.517Z</time>
      </trkpt>
      <trkpt lat="46.20172" lon="6.15292">
        <ele>385.7</ele>
        <time>2020-04-23T20:41:04.875Z</time>
      </trkpt>
      <trkpt lat="46.20163" lon="6.15302">
        <ele>388.1</ele>
        <time>2020-04-23T20:41:07.147Z</time>
      </trkpt>
      <trkpt lat="46.20156" lon="6.15305">
        <ele>388.3</ele>
        <time>2020-04-23T20:41:08.608Z</time>
      </trkpt>
      <trkpt lat="46.20151" lon="6.15307">
        <ele>388.4</ele>
        <time>2020-04-23T20:41:09.646Z</time>
      </trkpt>
      <trkpt lat="46.20145" lon="6.15312">
        <ele>388.6</ele>
        <time>2020-04-23T20:41:11.032Z</time>
      </trkpt>
      <trkpt lat="46.20141" lon="6.1532">
        <ele>388.7</ele>
        <time>2020-04-23T20:41:12.399Z</time>
      </trkpt>
      <trkpt lat="46.20138" lon="6.15334">
        <ele>389.5</ele>
        <time>2020-04-23T20:41:14.429Z</time>
      </trkpt>
      <trkpt lat="46.20142" lon="6.15359">
        <ele>389.8</ele>
        <time>2020-04-23T20:41:17.984Z</time>
      </trkpt>
      <trkpt lat="46.20145" lon="6.15373">
        <ele>390.1</ele>
        <time>2020-04-23T20:41:20.014Z</time>
      </trkpt>
      <trkpt lat="46.20147" lon="6.15395">
        <ele>390.4</ele>
        <time>2020-04-23T20:41:23.088Z</time>
      </trkpt>
      <trkpt lat="46.20138" lon="6.15436">
        <ele>391</ele>
        <time>2020-04-23T20:41:29.047Z</time>
      </trkpt>
      <trkpt lat="46.20131" lon="6.15482">
        <ele>391.1</ele>
        <time>2020-04-23T20:41:35.572Z</time>
      </trkpt>
      <trkpt lat="46.20118" lon="6.15544">
        <ele>390.8</ele>
        <time>2020-04-23T20:41:44.546Z</time>
      </trkpt>
      <trkpt lat="46.20117" lon="6.15555">
        <ele>390.9</ele>
        <time>2020-04-23T20:41:46.083Z</time>
      </trkpt>
      <trkpt lat="46.20119" lon="6.15559">
        <ele>390.8</ele>
        <time>2020-04-23T20:41:46.767Z</time>
      </trkpt>
      <trkpt lat="46.20124" lon="6.15562">
        <ele>390.7</ele>
        <time>2020-04-23T20:41:47.851Z</time>
      </trkpt>
      <trkpt lat="46.20144" lon="6.15571">
        <ele>390.2</ele>
        <time>2020-04-23T20:41:52.044Z</time>
      </trkpt>
      <trkpt lat="46.2018" lon="6.15604">
        <ele>386.9</ele>
        <time>2020-04-23T20:42:00.577Z</time>
      </trkpt>
      <trkpt lat="46.20207" lon="6.1564">
        <ele>385.7</ele>
        <time>2020-04-23T20:42:07.931Z</time>
      </trkpt>
      <trkpt lat="46.20249" lon="6.15658">
        <ele>384.5</ele>
        <time>2020-04-23T20:42:16.699Z</time>
      </trkpt>
      <trkpt lat="46.20267" lon="6.15683">
        <ele>385.2</ele>
        <time>2020-04-23T20:42:21.696Z</time>
      </trkpt>
      <trkpt lat="46.2037" lon="6.15774">
        <ele>384.2</ele>
        <time>2020-04-23T20:42:45.860Z</time>
      </trkpt>
      <trkpt lat="46.20505" lon="6.16007">
        <ele>384.2</ele>
        <time>2020-04-23T20:43:27.953Z</time>
      </trkpt>
      <trkpt lat="46.20675" lon="6.16211">
        <ele>383.9</ele>
        <time>2020-04-23T20:44:12.182Z</time>
      </trkpt>
      <trkpt lat="46.20752" lon="6.16336">
        <ele>379.7</ele>
        <time>2020-04-23T20:44:35.362Z</time>
      </trkpt>
      <trkpt lat="46.20784" lon="6.16411">
        <ele>378.1</ele>
        <time>2020-04-23T20:44:47.566Z</time>
      </trkpt>
      <trkpt lat="46.20866" lon="6.16594">
        <ele>374.5</ele>
        <time>2020-04-23T20:45:17.763Z</time>
      </trkpt>
      <trkpt lat="46.21102" lon="6.17115">
        <ele>377.9</ele>
        <time>2020-04-23T20:46:44.011Z</time>
      </trkpt>
      <trkpt lat="46.21164" lon="6.1725">
        <ele>377.5</ele>
        <time>2020-04-23T20:47:06.452Z</time>
      </trkpt>
      <trkpt lat="46.21165" lon="6.17271">
        <ele>379.9</ele>
        <time>2020-04-23T20:47:09.367Z</time>
      </trkpt>
      <trkpt lat="46.21163" lon="6.17276">
        <ele>380.4</ele>
        <time>2020-04-23T20:47:10.167Z</time>
      </trkpt>
      <trkpt lat="46.21148" lon="6.17289">
        <ele>381.4</ele>
        <time>2020-04-23T20:47:13.668Z</time>
      </trkpt>
      <trkpt lat="46.21147" lon="6.17295">
        <ele>381.7</ele>
        <time>2020-04-23T20:47:14.523Z</time>
      </trkpt>
      <trkpt lat="46.21149" lon="6.17302">
        <ele>381.9</ele>
        <time>2020-04-23T20:47:15.572Z</time>
      </trkpt>
      <trkpt lat="46.21152" lon="6.17308">
        <ele>381.9</ele>
        <time>2020-04-23T20:47:16.597Z</time>
      </trkpt>
      <trkpt lat="46.21155" lon="6.1731">
        <ele>381.9</ele>
        <time>2020-04-23T20:47:17.258Z</time>
      </trkpt>
      <trkpt lat="46.21161" lon="6.17307">
        <ele>381.8</ele>
        <time>2020-04-23T20:47:18.529Z</time>
      </trkpt>
      <trkpt lat="46.21163" lon="6.17306">
        <ele>381.7</ele>
        <time>2020-04-23T20:47:18.953Z</time>
      </trkpt>
      <trkpt lat="46.21169" lon="6.17296">
        <ele>377.5</ele>
        <time>2020-04-23T20:47:20.786Z</time>
      </trkpt>
      <trkpt lat="46.21171" lon="6.17285">
        <ele>377</ele>
        <time>2020-04-23T20:47:22.361Z</time>
      </trkpt>
      <trkpt lat="46.2117" lon="6.17266">
        <ele>376.7</ele>
        <time>2020-04-23T20:47:25.000Z</time>
      </trkpt>
      <trkpt lat="46.21167" lon="6.17255">
        <ele>376.9</ele>
        <time>2020-04-23T20:47:26.638Z</time>
      </trkpt>
      <trkpt lat="46.21138" lon="6.1719">
        <ele>378.1</ele>
        <time>2020-04-23T20:47:37.350Z</time>
      </trkpt>
    </trkseg>
  </trk>
</gpx>